»·PEaware :: N55335 KMYF-KFAT

N55335 :: KMYF-KFAT

FLIGHT INFORMATION

Flight Status: Arrived
Operator: Privately registered:
United States
More flights under this callsign
Pilot: John N. (18861)
Aircraft: CIRRUS VISIONJET
(SF50)
More flights by this aircraft type
Origin: KMYF Montgomery
United States
Destination: KFAT Fresno Yosemite Intl
United States
More flights between these airports :: More routes between these airports
Route: +PADRZ2 EHF TTE ALTTA9
File this flight plan on PilotEdge
Remarks:
Altitude:
(Current/Filed)
22,000ft
Speed:
(Current/Filed)
235kts
Departed: 07-Sep-20 04:16 PM
Arrived: 07-Sep-20 05:43 PM
Distance/Time
Traveled:
269nm/1:26
Distance/Time
To Go:
Arrived

Flight Plot

Page will automatically refresh every two minutes.

Flight plan parsing failed; only flown route is shown


Map Options




Map Legend


Flown Route
Filed Route
Departure Airport
Arrival Airport
Navaid (VOR, NDB)
Fix

Horizontal Profiles

Position Reports

Time Latitude Longitude Heading Altitude Ground
Speed
07-Sep-20 16:01 32.811847 -117.135435 82 427ft 0kts
07-Sep-20 16:02 32.811847 -117.135435 82 427ft 0kts
07-Sep-20 16:03 32.811847 -117.135435 82 427ft 0kts
07-Sep-20 16:03 32.811847 -117.135435 82 427ft 0kts
07-Sep-20 16:04 32.811847 -117.135435 82 427ft 0kts
07-Sep-20 16:06 32.811863 -117.135411 36 427ft 0kts
07-Sep-20 16:07 32.811730 -117.135698 4 427ft 0kts
07-Sep-20 16:07 32.811730 -117.135698 4 427ft 0kts
07-Sep-20 16:08 32.811730 -117.135698 4 427ft 0kts
07-Sep-20 16:09 32.812125 -117.135338 73 427ft 10kts
07-Sep-20 16:10 32.811688 -117.131757 57 427ft 7kts
07-Sep-20 16:11 32.811911 -117.131404 49 427ft 0kts
07-Sep-20 16:12 32.811948 -117.131354 48 427ft 0kts
07-Sep-20 16:13 32.811985 -117.131304 47 427ft 0kts
07-Sep-20 16:14 32.812033 -117.131260 4 427ft 0kts
07-Sep-20 16:15 32.813563 -117.133279 290 427ft 47kts
07-Sep-20 16:16 32.815546 -117.138766 61 427ft 3kts
07-Sep-20 16:17 32.817440 -117.142687 242 427ft 0kts
07-Sep-20 16:18 32.818283 -117.144991 290 427ft 57kts
07-Sep-20 16:19 32.823781 -117.173234 274 1071ft 99kts
07-Sep-20 16:20 32.831857 -117.208298 283 1424ft 153kts
07-Sep-20 16:21 32.842002 -117.249150 289 2635ft 134kts
07-Sep-20 16:22 32.851187 -117.290713 281 3697ft 129kts
07-Sep-20 16:23 32.858933 -117.331242 281 5323ft 127kts
07-Sep-20 16:24 32.865859 -117.372605 281 6796ft 129kts
07-Sep-20 16:25 32.872016 -117.414814 281 8163ft 132kts
07-Sep-20 16:26 32.892154 -117.451007 308 9449ft 133kts
07-Sep-20 16:27 32.914514 -117.486747 308 10661ft 137kts
07-Sep-20 16:28 32.937262 -117.523581 309 11788ft 141kts
07-Sep-20 16:29 32.959768 -117.560154 309 12846ft 143kts
07-Sep-20 16:30 32.983354 -117.598550 309 13899ft 144kts
07-Sep-20 16:31 33.006914 -117.636947 309 14883ft 145kts
07-Sep-20 16:32 33.030623 -117.675623 308 15810ft 145kts
07-Sep-20 16:33 33.054698 -117.714938 308 16692ft 147kts
07-Sep-20 16:34 33.083271 -117.749006 321 17517ft 146kts
07-Sep-20 16:35 33.114247 -117.780797 321 18310ft 147kts
07-Sep-20 16:36 33.145346 -117.812499 321 19051ft 149kts
07-Sep-20 16:37 33.177347 -117.845101 321 19757ft 151kts
07-Sep-20 16:38 33.209656 -117.877282 322 20417ft 152kts
07-Sep-20 16:39 33.234514 -117.901540 322 20889ft 154kts
07-Sep-20 16:40 33.267859 -117.934080 322 21483ft 156kts
07-Sep-20 16:41 33.301943 -117.967358 322 21881ft 168kts
07-Sep-20 16:42 33.342781 -118.007276 322 21884ft 211kts
07-Sep-20 16:43 33.389677 -118.053206 322 21868ft 223kts
07-Sep-20 16:44 33.438523 -118.101102 322 21853ft 231kts
07-Sep-20 16:45 33.488655 -118.150332 322 21860ft 235kts
07-Sep-20 16:46 33.539687 -118.200524 322 21864ft 239kts
07-Sep-20 16:47 33.594321 -118.245844 335 21860ft 240kts
07-Sep-20 16:48 33.653489 -118.278863 336 21858ft 242kts
07-Sep-20 16:49 33.714924 -118.312764 336 21861ft 243kts
07-Sep-20 16:50 33.776714 -118.345939 337 21861ft 244kts
07-Sep-20 16:51 33.839715 -118.377753 337 21834ft 245kts
07-Sep-20 16:52 33.902683 -118.409550 337 21833ft 245kts
07-Sep-20 16:53 33.965710 -118.441426 337 21833ft 245kts
07-Sep-20 16:54 34.030798 -118.463921 352 21833ft 244kts
07-Sep-20 16:55 34.098191 -118.474542 352 21833ft 244kts
07-Sep-20 16:56 34.165738 -118.484923 352 21836ft 245kts
07-Sep-20 16:57 34.233476 -118.495343 352 21835ft 245kts
07-Sep-20 16:58 34.301104 -118.505761 352 21839ft 245kts
07-Sep-20 16:59 34.368697 -118.516192 352 21841ft 245kts
07-Sep-20 17:00 34.436237 -118.526631 352 21848ft 245kts
07-Sep-20 17:01 34.503488 -118.537042 352 21864ft 244kts
07-Sep-20 17:02 34.570940 -118.547502 352 21881ft 244kts
07-Sep-20 17:03 34.638303 -118.557965 352 21888ft 244kts
07-Sep-20 17:04 34.699371 -118.567465 352 21899ft 246kts
07-Sep-20 17:05 34.767738 -118.578187 349 21947ft 250kts
07-Sep-20 17:06 34.834185 -118.603644 342 22022ft 252kts
07-Sep-20 17:07 34.901414 -118.629519 343 22071ft 254kts
07-Sep-20 17:08 34.968206 -118.655038 341 22072ft 257kts
07-Sep-20 17:09 35.026859 -118.677482 341 22072ft 260kts
07-Sep-20 17:10 35.091622 -118.702313 341 22035ft 263kts
07-Sep-20 17:11 35.161845 -118.729279 341 21956ft 267kts
07-Sep-20 17:12 35.233002 -118.756651 341 21876ft 269kts
07-Sep-20 17:13 35.304574 -118.784233 341 21847ft 269kts
07-Sep-20 17:14 35.376059 -118.811833 341 21826ft 269kts
07-Sep-20 17:15 35.447001 -118.839275 341 21826ft 268kts
07-Sep-20 17:16 35.517879 -118.866742 341 21826ft 267kts
07-Sep-20 17:17 35.588703 -118.894239 341 21823ft 266kts
07-Sep-20 17:18 35.659403 -118.921740 341 21818ft 266kts
07-Sep-20 17:19 35.729896 -118.949214 341 21819ft 265kts
07-Sep-20 17:20 35.800218 -118.976670 341 21826ft 265kts
07-Sep-20 17:21 35.871426 -119.004519 341 20564ft 271kts
07-Sep-20 17:22 35.922181 -119.068789 328 19242ft 271kts
07-Sep-20 17:23 35.990784 -119.098467 341 17175ft 264kts
07-Sep-20 17:24 36.062193 -119.127481 337 14679ft 270kts
07-Sep-20 17:25 36.130743 -119.155913 339 13828ft 245kts
07-Sep-20 17:26 36.194217 -119.181526 339 13764ft 238kts
07-Sep-20 17:27 36.258949 -119.207680 338 12169ft 252kts
07-Sep-20 17:28 36.326665 -119.235080 338 10569ft 259kts
07-Sep-20 17:29 36.393421 -119.262126 338 8862ft 246kts
07-Sep-20 17:30 36.456977 -119.287932 338 7372ft 234kts
07-Sep-20 17:31 36.517646 -119.312619 338 6256ft 228kts
07-Sep-20 17:32 36.568002 -119.353870 304 5254ft 215kts
07-Sep-20 17:33 36.601710 -119.412127 303 4040ft 201kts
07-Sep-20 17:34 36.632071 -119.464844 305 3479ft 164kts
07-Sep-20 17:36 36.657521 -119.509099 305 2578ft 126kts
07-Sep-20 17:37 36.678830 -119.547628 305 2024ft 121kts
07-Sep-20 17:38 36.698288 -119.584189 303 2385ft 134kts
07-Sep-20 17:39 36.719228 -119.622836 307 2247ft 125kts
07-Sep-20 17:40 36.738357 -119.654167 304 1571ft 97kts
07-Sep-20 17:41 36.753654 -119.681293 306 1081ft 90kts
07-Sep-20 17:42 36.768509 -119.707052 304 429ft 90kts
07-Sep-20 17:43 36.775383 -119.720650 154 333ft 1kts
07-Sep-20 17:44 36.775365 -119.720640 155 333ft 0kts

Navigation Log

Ident Type
Flight plan parsing failed, navigation log unavailable